sensor_id;sensor_type;location;lat;lon;timestamp;pressure;altitude;pressure_sealevel;temperature;humidity
69780;BME280;57052;55.602;38.096;2023-02-05T00:01:20;101005.91;;;3.50;69.63
69780;BME280;57052;55.602;38.096;2023-02-05T00:03:45;101012.28;;;3.49;69.67
69780;BME280;57052;55.602;38.096;2023-02-05T00:06:11;100996.84;;;3.38;69.37
69780;BME280;57052;55.602;38.096;2023-02-05T00:08:37;101012.06;;;3.44;68.80
69780;BME280;57052;55.602;38.096;2023-02-05T00:11:03;101006.94;;;3.42;69.17
69780;BME280;57052;55.602;38.096;2023-02-05T00:13:35;100999.72;;;3.36;69.16
69780;BME280;57052;55.602;38.096;2023-02-05T00:16:09;101003.44;;;3.35;68.79
69780;BME280;57052;55.602;38.096;2023-02-05T00:18:35;101012.06;;;3.37;68.88
69780;BME280;57052;55.602;38.096;2023-02-05T00:21:03;101017.81;;;3.34;69.04
69780;BME280;57052;55.602;38.096;2023-02-05T00:23:28;101013.53;;;3.33;68.83
69780;BME280;57052;55.602;38.096;2023-02-05T00:25:54;101009.59;;;3.22;69.13
69780;BME280;57052;55.602;38.096;2023-02-05T00:28:20;101025.63;;;3.29;68.70
69780;BME280;57052;55.602;38.096;2023-02-05T00:30:45;100997.81;;;3.10;68.38
69780;BME280;57052;55.602;38.096;2023-02-05T00:33:11;101022.97;;;3.22;68.81
69780;BME280;57052;55.602;38.096;2023-02-05T00:35:36;101017.59;;;3.22;68.69
69780;BME280;57052;55.602;38.096;2023-02-05T00:38:02;101022.13;;;3.22;68.16
69780;BME280;57052;55.602;38.096;2023-02-05T00:40:28;101018.00;;;3.13;68.71
69780;BME280;57052;55.602;38.096;2023-02-05T00:42:53;101026.44;;;3.16;68.26
69780;BME280;57052;55.602;38.096;2023-02-05T00:45:19;101032.59;;;3.17;69.04
69780;BME280;57052;55.602;38.096;2023-02-05T00:47:45;101027.66;;;3.14;68.79
69780;BME280;57052;55.602;38.096;2023-02-05T00:50:10;101030.31;;;3.14;68.32
69780;BME280;57052;55.602;38.096;2023-02-05T00:52:36;101014.66;;;3.04;68.61
69780;BME280;57052;55.602;38.096;2023-02-05T00:55:02;101029.72;;;3.12;68.88
69780;BME280;57052;55.602;38.096;2023-02-05T00:57:28;101033.41;;;3.11;68.99
69780;BME280;57052;55.602;38.096;2023-02-05T00:59:53;101020.22;;;3.03;68.31
69780;BME280;57052;55.602;38.096;2023-02-05T01:02:19;101035.47;;;3.09;68.97
69780;BME280;57052;55.602;38.096;2023-02-05T01:04:49;101032.78;;;3.09;68.10
69780;BME280;57052;55.602;38.096;2023-02-05T01:07:16;101035.47;;;3.09;67.98
69780;BME280;57052;55.602;38.096;2023-02-05T01:09:42;101037.06;;;3.03;68.33
69780;BME280;57052;55.602;38.096;2023-02-05T01:12:07;101046.97;;;3.03;68.05
69780;BME280;57052;55.602;38.096;2023-02-05T01:14:33;101044.47;;;3.01;68.20
69780;BME280;57052;55.602;38.096;2023-02-05T01:16:59;101043.88;;;2.99;68.50
69780;BME280;57052;55.602;38.096;2023-02-05T01:19:24;101045.72;;;2.99;67.80
69780;BME280;57052;55.602;38.096;2023-02-05T01:21:50;101040.75;;;2.89;68.10
69780;BME280;57052;55.602;38.096;2023-02-05T01:24:15;101043.63;;;2.88;68.30
69780;BME280;57052;55.602;38.096;2023-02-05T01:26:41;101055.94;;;2.89;68.51
69780;BME280;57052;55.602;38.096;2023-02-05T01:29:07;101057.16;;;2.86;68.08
69780;BME280;57052;55.602;38.096;2023-02-05T01:31:32;101059.22;;;2.84;68.00
69780;BME280;57052;55.602;38.096;2023-02-05T01:33:58;101058.59;;;2.82;68.27
69780;BME280;57052;55.602;38.096;2023-02-05T01:36:24;101059.44;;;2.83;67.81
69780;BME280;57052;55.602;38.096;2023-02-05T01:38:49;101050.34;;;2.77;67.77
69780;BME280;57052;55.602;38.096;2023-02-05T01:41:17;101050.50;;;2.69;68.32
69780;BME280;57052;55.602;38.096;2023-02-05T01:44:10;101068.00;;;2.72;66.85
69780;BME280;57052;55.602;38.096;2023-02-05T01:46:41;101065.97;;;2.74;67.74
69780;BME280;57052;55.602;38.096;2023-02-05T01:49:14;101060.81;;;2.72;68.00
69780;BME280;57052;55.602;38.096;2023-02-05T01:51:42;101061.41;;;2.68;67.58
69780;BME280;57052;55.602;38.096;2023-02-05T01:54:10;101055.66;;;2.71;68.30
69780;BME280;57052;55.602;38.096;2023-02-05T01:56:48;101056.47;;;2.65;67.07
69780;BME280;57052;55.602;38.096;2023-02-05T01:59:19;101075.41;;;2.70;67.50
69780;BME280;57052;55.602;38.096;2023-02-05T02:01:46;101061.56;;;2.59;67.57
69780;BME280;57052;55.602;38.096;2023-02-05T02:04:15;101077.84;;;2.65;67.30
69780;BME280;57052;55.602;38.096;2023-02-05T02:06:43;101079.06;;;2.62;67.51
69780;BME280;57052;55.602;38.096;2023-02-05T02:09:08;101073.28;;;2.58;67.25
69780;BME280;57052;55.602;38.096;2023-02-05T02:11:37;101069.13;;;2.49;67.46
69780;BME280;57052;55.602;38.096;2023-02-05T02:14:07;101079.22;;;2.54;67.05
69780;BME280;57052;55.602;38.096;2023-02-05T02:16:36;101090.34;;;2.57;67.14
69780;BME280;57052;55.602;38.096;2023-02-05T02:19:12;101087.69;;;2.57;67.41
69780;BME280;57052;55.602;38.096;2023-02-05T02:24:31;101078.59;;;2.52;66.93
69780;BME280;57052;55.602;38.096;2023-02-05T02:33:06;101082.88;;;2.46;66.49
69780;BME280;57052;55.602;38.096;2023-02-05T02:35:47;101079.56;;;2.44;66.64
69780;BME280;57052;55.602;38.096;2023-02-05T02:38:35;101084.28;;;2.42;66.24
69780;BME280;57052;55.602;38.096;2023-02-05T02:44:09;101088.19;;;2.40;66.66
69780;BME280;57052;55.602;38.096;2023-02-05T02:46:40;101097.44;;;2.44;67.56
69780;BME280;57052;55.602;38.096;2023-02-05T02:49:10;101098.28;;;2.44;66.71
69780;BME280;57052;55.602;38.096;2023-02-05T02:51:39;101095.81;;;2.43;66.78
69780;BME280;57052;55.602;38.096;2023-02-05T02:54:08;101097.44;;;2.44;67.10
69780;BME280;57052;55.602;38.096;2023-02-05T02:56:38;101090.84;;;2.40;66.67
69780;BME280;57052;55.602;38.096;2023-02-05T02:59:07;101100.94;;;2.44;66.46
69780;BME280;57052;55.602;38.096;2023-02-05T03:01:37;101100.13;;;2.44;66.58
69780;BME280;57052;55.602;38.096;2023-02-05T03:04:11;101103.16;;;2.41;66.24
69780;BME280;57052;55.602;38.096;2023-02-05T03:06:42;101104.00;;;2.41;66.55
69780;BME280;57052;55.602;38.096;2023-02-05T03:11:54;101094.03;;;2.29;67.56
69780;BME280;57052;55.602;38.096;2023-02-05T03:14:20;101110.78;;;2.37;66.79
69780;BME280;57052;55.602;38.096;2023-02-05T03:16:45;101105.44;;;2.37;66.64
69780;BME280;57052;55.602;38.096;2023-02-05T03:19:11;101109.31;;;2.35;67.22
69780;BME280;57052;55.602;38.096;2023-02-05T03:21:42;101104.59;;;2.37;66.70
69780;BME280;57052;55.602;38.096;2023-02-05T03:24:11;101114.44;;;2.36;66.92
69780;BME280;57052;55.602;38.096;2023-02-05T03:26:37;101108.28;;;2.36;67.34
69780;BME280;57052;55.602;38.096;2023-02-05T03:29:07;101113.81;;;2.34;66.74
69780;BME280;57052;55.602;38.096;2023-02-05T03:31:43;101106.81;;;2.33;66.60
69780;BME280;57052;55.602;38.096;2023-02-05T03:40:00;101112.13;;;2.27;66.41
69780;BME280;57052;55.602;38.096;2023-02-05T03:48:29;101113.09;;;2.19;67.33
69780;BME280;57052;55.602;38.096;2023-02-05T03:51:16;101109.41;;;2.20;67.33
69780;BME280;57052;55.602;38.096;2023-02-05T03:56:24;101113.72;;;2.21;66.98
69780;BME280;57052;55.602;38.096;2023-02-05T03:58:53;101085.00;;;2.02;67.21
69780;BME280;57052;55.602;38.096;2023-02-05T04:01:21;101114.75;;;2.20;67.23
69780;BME280;57052;55.602;38.096;2023-02-05T04:03:48;101112.25;;;2.19;67.09
69780;BME280;57052;55.602;38.096;2023-02-05T04:06:13;101116.75;;;2.18;67.73
69780;BME280;57052;55.602;38.096;2023-02-05T04:08:39;101117.81;;;2.17;67.59
69780;BME280;57052;55.602;38.096;2023-02-05T04:11:05;101120.25;;;2.19;67.54
69780;BME280;57052;55.602;38.096;2023-02-05T04:13:31;101119.44;;;2.18;66.81
69780;BME280;57052;55.602;38.096;2023-02-05T04:15:57;101123.78;;;2.19;66.81
69780;BME280;57052;55.602;38.096;2023-02-05T04:18:23;101127.28;;;2.20;67.14
69780;BME280;57052;55.602;38.096;2023-02-05T04:20:48;101124.59;;;2.20;67.20
69780;BME280;57052;55.602;38.096;2023-02-05T04:23:14;101132.00;;;2.18;67.39
69780;BME280;57052;55.602;38.096;2023-02-05T04:25:39;101132.78;;;2.18;67.13
69780;BME280;57052;55.602;38.096;2023-02-05T04:28:05;101129.13;;;2.19;67.10
69780;BME280;57052;55.602;38.096;2023-02-05T04:30:32;101133.81;;;2.17;67.45
69780;BME280;57052;55.602;38.096;2023-02-05T04:32:58;101132.00;;;2.18;67.00
69780;BME280;57052;55.602;38.096;2023-02-05T04:35:24;101125.13;;;2.09;67.28
69780;BME280;57052;55.602;38.096;2023-02-05T04:37:50;101137.50;;;2.16;67.48
69780;BME280;57052;55.602;38.096;2023-02-05T04:40:15;101148.81;;;2.18;67.54
69780;BME280;57052;55.602;38.096;2023-02-05T04:42:41;101150.69;;;2.18;66.92
69780;BME280;57052;55.602;38.096;2023-02-05T04:45:07;101152.53;;;2.17;66.84
69780;BME280;57052;55.602;38.096;2023-02-05T04:47:34;101139.75;;;2.13;67.32
69780;BME280;57052;55.602;38.096;2023-02-05T04:50:00;101142.59;;;2.11;67.03
69780;BME280;57052;55.602;38.096;2023-02-05T04:52:25;101155.19;;;2.17;67.33
69780;BME280;57052;55.602;38.096;2023-02-05T04:54:51;101155.78;;;2.13;67.15
69780;BME280;57052;55.602;38.096;2023-02-05T04:57:17;101166.25;;;2.14;67.26
69780;BME280;57052;55.602;38.096;2023-02-05T04:59:42;101162.13;;;2.12;66.67
69780;BME280;57052;55.602;38.096;2023-02-05T05:02:08;101162.50;;;2.09;66.84
69780;BME280;57052;55.602;38.096;2023-02-05T05:04:33;101156.91;;;2.04;67.02
69780;BME280;57052;55.602;38.096;2023-02-05T05:07:00;101171.34;;;2.09;66.80
69780;BME280;57052;55.602;38.096;2023-02-05T05:09:25;101171.34;;;2.09;67.19
69780;BME280;57052;55.602;38.096;2023-02-05T05:11:51;101170.72;;;2.07;67.39
69780;BME280;57052;55.602;38.096;2023-02-05T05:14:18;101181.19;;;2.09;67.21
69780;BME280;57052;55.602;38.096;2023-02-05T05:16:43;101173.38;;;2.07;67.34
69780;BME280;57052;55.602;38.096;2023-02-05T05:19:11;101177.84;;;2.00;67.11
69780;BME280;57052;55.602;38.096;2023-02-05T05:21:36;101185.28;;;2.05;66.92
69780;BME280;57052;55.602;38.096;2023-02-05T05:24:02;101189.78;;;2.04;67.71
69780;BME280;57052;55.602;38.096;2023-02-05T05:26:27;101186.91;;;2.06;66.94
69780;BME280;57052;55.602;38.096;2023-02-05T05:28:54;101187.94;;;2.05;66.90
69780;BME280;57052;55.602;38.096;2023-02-05T05:31:19;101187.84;;;1.98;67.16
69780;BME280;57052;55.602;38.096;2023-02-05T05:33:46;101197.31;;;2.01;67.52
69780;BME280;57052;55.602;38.096;2023-02-05T05:36:11;101175.66;;;1.89;67.02
69780;BME280;57052;55.602;38.096;2023-02-05T05:38:37;101199.56;;;1.97;67.25
69780;BME280;57052;55.602;38.096;2023-02-05T05:41:03;101197.06;;;1.95;67.14
69780;BME280;57052;55.602;38.096;2023-02-05T05:43:47;101192.94;;;1.93;67.90
69780;BME280;57052;55.602;38.096;2023-02-05T05:46:22;101185.72;;;1.87;67.79
69780;BME280;57052;55.602;38.096;2023-02-05T05:48:53;101212.28;;;1.95;67.15
69780;BME280;57052;55.602;38.096;2023-02-05T05:51:20;101198.84;;;1.88;66.95
69780;BME280;57052;55.602;38.096;2023-02-05T05:53:46;101225.22;;;1.98;67.20
69780;BME280;57052;55.602;38.096;2023-02-05T05:56:12;101215.97;;;1.94;67.10
69780;BME280;57052;55.602;38.096;2023-02-05T05:58:38;101230.16;;;1.94;67.65
69780;BME280;57052;55.602;38.096;2023-02-05T06:01:05;101215.69;;;1.89;67.54
69780;BME280;57052;55.602;38.096;2023-02-05T06:03:30;101208.06;;;1.86;67.51
69780;BME280;57052;55.602;38.096;2023-02-05T06:05:59;101219.22;;;1.89;67.84
69780;BME280;57052;55.602;38.096;2023-02-05T06:08:25;101204.38;;;1.87;67.79
69780;BME280;57052;55.602;38.096;2023-02-05T06:10:50;101232.81;;;1.94;67.07
69780;BME280;57052;55.602;38.096;2023-02-05T06:13:16;101232.81;;;1.94;67.92
69780;BME280;57052;55.602;38.096;2023-02-05T06:15:42;101231.78;;;1.95;67.79
69780;BME280;57052;55.602;38.096;2023-02-05T06:18:07;101234.44;;;1.95;67.69
69780;BME280;57052;55.602;38.096;2023-02-05T06:20:33;101221.25;;;1.87;67.29
69780;BME280;57052;55.602;38.096;2023-02-05T06:22:58;101227.22;;;1.89;67.81
69780;BME280;57052;55.602;38.096;2023-02-05T06:25:24;101228.69;;;1.92;67.26
69780;BME280;57052;55.602;38.096;2023-02-05T06:27:50;101233.44;;;1.97;67.37
69780;BME280;57052;55.602;38.096;2023-02-05T06:30:16;101240.63;;;1.96;67.99
69780;BME280;57052;55.602;38.096;2023-02-05T06:32:41;101241.91;;;2.00;68.02
69780;BME280;57052;55.602;38.096;2023-02-05T06:35:07;101247.06;;;2.02;67.03
69780;BME280;57052;55.602;38.096;2023-02-05T06:37:32;101245.22;;;2.02;66.98
69780;BME280;57052;55.602;38.096;2023-02-05T06:39:58;101248.53;;;2.04;67.06
69780;BME280;57052;55.602;38.096;2023-02-05T06:42:24;101252.19;;;2.03;67.28
69780;BME280;57052;55.602;38.096;2023-02-05T06:44:49;101258.19;;;2.05;67.65
69780;BME280;57052;55.602;38.096;2023-02-05T06:47:15;101257.16;;;2.06;67.42
69780;BME280;57052;55.602;38.096;2023-02-05T06:49:40;101255.13;;;2.08;67.65
69780;BME280;57052;55.602;38.096;2023-02-05T06:52:06;101256.78;;;2.09;67.58
69780;BME280;57052;55.602;38.096;2023-02-05T06:54:31;101264.22;;;2.14;67.43
69780;BME280;57052;55.602;38.096;2023-02-05T06:56:57;101258.63;;;2.09;66.73
69780;BME280;57052;55.602;38.096;2023-02-05T06:59:23;101263.03;;;2.16;66.92
69780;BME280;57052;55.602;38.096;2023-02-05T07:01:48;101264.31;;;2.20;66.32
69780;BME280;57052;55.602;38.096;2023-02-05T07:04:14;101260.19;;;2.18;66.36
69780;BME280;57052;55.602;38.096;2023-02-05T07:06:39;101255.59;;;2.12;66.27
69780;BME280;57052;55.602;38.096;2023-02-05T07:09:05;101264.56;;;2.25;66.56
69780;BME280;57052;55.602;38.096;2023-02-05T07:11:31;101259.28;;;2.32;65.84
69780;BME280;57052;55.602;38.096;2023-02-05T07:13:59;101265.91;;;2.36;66.25
69780;BME280;57052;55.602;38.096;2023-02-05T07:16:25;101253.13;;;2.31;66.35
69780;BME280;57052;55.602;38.096;2023-02-05T07:18:51;101276.47;;;2.44;65.72
69780;BME280;57052;55.602;38.096;2023-02-05T07:21:17;101266.22;;;2.47;66.29
69780;BME280;57052;55.602;38.096;2023-02-05T07:23:43;101269.53;;;2.49;65.93
69780;BME280;57052;55.602;38.096;2023-02-05T07:26:11;101274.50;;;2.52;65.41
69780;BME280;57052;55.602;38.096;2023-02-05T07:28:38;101280.94;;;2.58;65.23
69780;BME280;57052;55.602;38.096;2023-02-05T07:31:06;101270.66;;;2.62;65.44
69780;BME280;57052;55.602;38.096;2023-02-05T07:33:32;101275.44;;;2.66;65.51
69780;BME280;57052;55.602;38.096;2023-02-05T07:36:04;101284.91;;;2.69;64.72
69780;BME280;57052;55.602;38.096;2023-02-05T07:38:31;101282.06;;;2.70;65.07
69780;BME280;57052;55.602;38.096;2023-02-05T07:40:56;101287.00;;;2.73;64.62
69780;BME280;57052;55.602;38.096;2023-02-05T07:43:23;101279.81;;;2.74;64.25
69780;BME280;57052;55.602;38.096;2023-02-05T07:45:56;101301.28;;;2.80;63.73
69780;BME280;57052;55.602;38.096;2023-02-05T07:48:22;101296.09;;;2.79;64.74
69780;BME280;57052;55.602;38.096;2023-02-05T07:50:48;101275.03;;;2.69;64.17
69780;BME280;57052;55.602;38.096;2023-02-05T07:53:13;101296.56;;;2.82;64.40
69780;BME280;57052;55.602;38.096;2023-02-05T07:55:39;101308.34;;;2.88;63.84
69780;BME280;57052;55.602;38.096;2023-02-05T07:58:05;101310.81;;;2.89;64.53
69780;BME280;57052;55.602;38.096;2023-02-05T08:00:30;101303.16;;;2.86;64.35
69780;BME280;57052;55.602;38.096;2023-02-05T08:02:56;101319.06;;;2.94;63.31
69780;BME280;57052;55.602;38.096;2023-02-05T08:05:22;101262.97;;;2.52;63.84
69780;BME280;57052;55.602;38.096;2023-02-05T08:07:48;101323.53;;;2.87;63.51
69780;BME280;57052;55.602;38.096;2023-02-05T08:10:14;101314.44;;;2.82;63.78
69780;BME280;57052;55.602;38.096;2023-02-05T08:12:39;101317.34;;;2.87;63.57
69780;BME280;57052;55.602;38.096;2023-02-05T08:15:05;101324.38;;;2.88;63.96
69780;BME280;57052;55.602;38.096;2023-02-05T08:17:31;101320.50;;;2.90;63.04
69780;BME280;57052;55.602;38.096;2023-02-05T08:19:57;101324.78;;;2.91;63.89
69780;BME280;57052;55.602;38.096;2023-02-05T08:22:24;101316.91;;;2.83;63.77
69780;BME280;57052;55.602;38.096;2023-02-05T08:24:50;101333.41;;;2.87;63.13
69780;BME280;57052;55.602;38.096;2023-02-05T08:27:15;101325.97;;;2.82;63.45
69780;BME280;57052;55.602;38.096;2023-02-05T08:29:41;101331.09;;;2.84;62.64
69780;BME280;57052;55.602;38.096;2023-02-05T08:32:07;101319.31;;;2.78;63.13
69780;BME280;57052;55.602;38.096;2023-02-05T08:34:32;101320.78;;;2.81;63.41
69780;BME280;57052;55.602;38.096;2023-02-05T08:36:58;101330.34;;;2.90;62.50
69780;BME280;57052;55.602;38.096;2023-02-05T08:39:24;101329.31;;;2.91;62.45
69780;BME280;57052;55.602;38.096;2023-02-05T08:41:50;101269.41;;;2.57;62.77
69780;BME280;57052;55.602;38.096;2023-02-05T08:44:16;101325.25;;;2.95;62.45
69780;BME280;57052;55.602;38.096;2023-02-05T08:46:41;101327.94;;;2.95;63.14
69780;BME280;57052;55.602;38.096;2023-02-05T08:49:07;101322.50;;;2.88;62.26
69780;BME280;57052;55.602;38.096;2023-02-05T08:51:32;101336.56;;;2.97;62.71
69780;BME280;57052;55.602;38.096;2023-02-05T08:54:00;101321.38;;;2.97;62.68
69780;BME280;57052;55.602;38.096;2023-02-05T08:56:25;101327.13;;;3.01;62.21
69780;BME280;57052;55.602;38.096;2023-02-05T08:58:51;101324.28;;;3.02;61.85
69780;BME280;57052;55.602;38.096;2023-02-05T09:01:17;101338.16;;;3.12;62.28
69780;BME280;57052;55.602;38.096;2023-02-05T09:03:43;101334.44;;;3.13;62.31
69780;BME280;57052;55.602;38.096;2023-02-05T09:06:12;101322.50;;;3.09;61.78
69780;BME280;57052;55.602;38.096;2023-02-05T09:08:39;101320.66;;;3.10;61.78
69780;BME280;57052;55.602;38.096;2023-02-05T09:11:05;101339.78;;;3.13;62.14
69780;BME280;57052;55.602;38.096;2023-02-05T09:13:31;101300.94;;;2.90;61.64
69780;BME280;57052;55.602;38.096;2023-02-05T09:15:57;101339.63;;;3.15;61.62
69780;BME280;57052;55.602;38.096;2023-02-05T09:18:23;101341.91;;;3.18;61.90
69780;BME280;57052;55.602;38.096;2023-02-05T09:20:49;101340.88;;;3.19;61.73
69780;BME280;57052;55.602;38.096;2023-02-05T09:23:17;101338.81;;;3.21;61.49
69780;BME280;57052;55.602;38.096;2023-02-05T09:25:43;101340.50;;;3.22;61.22
69780;BME280;57052;55.602;38.096;2023-02-05T09:28:11;101335.38;;;3.27;61.29
69780;BME280;57052;55.602;38.096;2023-02-05T09:30:42;101343.19;;;3.29;61.08
69780;BME280;57052;55.602;38.096;2023-02-05T09:33:09;101329.78;;;3.22;60.89
69780;BME280;57052;55.602;38.096;2023-02-05T09:35:35;101336.81;;;3.23;61.03
69780;BME280;57052;55.602;38.096;2023-02-05T09:38:01;101322.97;;;3.19;60.76
69780;BME280;57052;55.602;38.096;2023-02-05T09:40:58;101333.72;;;3.26;58.61
69780;BME280;57052;55.602;38.096;2023-02-05T09:52:48;101331.03;;;3.54;60.03
69780;BME280;57052;55.602;38.096;2023-02-05T09:55:19;101333.94;;;3.59;59.82
69780;BME280;57052;55.602;38.096;2023-02-05T09:57:48;101320.38;;;3.60;60.24
69780;BME280;57052;55.602;38.096;2023-02-05T10:00:25;101327.19;;;3.69;59.62
69780;BME280;57052;55.602;38.096;2023-02-05T10:05:28;101335.09;;;3.77;59.90
69780;BME280;57052;55.602;38.096;2023-02-05T10:08:31;101310.28;;;3.62;58.69
69780;BME280;57052;55.602;38.096;2023-02-05T10:11:00;101330.34;;;3.79;59.39
69780;BME280;57052;55.602;38.096;2023-02-05T10:13:28;101342.13;;;3.85;59.50
69780;BME280;57052;55.602;38.096;2023-02-05T10:19:16;101342.53;;;3.88;57.44
69780;BME280;57052;55.602;38.096;2023-02-05T10:27:49;101345.44;;;3.94;57.15
69780;BME280;57052;55.602;38.096;2023-02-05T10:30:29;101342.19;;;3.98;58.07
69780;BME280;57052;55.602;38.096;2023-02-05T10:33:00;101329.59;;;3.99;59.79
69780;BME280;57052;55.602;38.096;2023-02-05T10:35:44;101330.88;;;4.03;58.65
69780;BME280;57052;55.602;38.096;2023-02-05T10:38:27;101321.56;;;3.99;59.14
69780;BME280;57052;55.602;38.096;2023-02-05T10:41:24;101325.50;;;4.03;57.85
69780;BME280;57052;55.602;38.096;2023-02-05T10:44:04;101331.50;;;4.11;58.61
69780;BME280;57052;55.602;38.096;2023-02-05T10:46:35;101327.59;;;4.14;59.48
69780;BME280;57052;55.602;38.096;2023-02-05T10:51:34;101327.38;;;4.09;58.68
69780;BME280;57052;55.602;38.096;2023-02-05T10:54:02;101321.63;;;4.12;59.16
69780;BME280;57052;55.602;38.096;2023-02-05T10:56:29;101336.50;;;4.21;59.00
69780;BME280;57052;55.602;38.096;2023-02-05T10:59:00;101338.59;;;4.25;58.45
69780;BME280;57052;55.602;38.096;2023-02-05T11:01:35;101334.47;;;4.23;58.08
69780;BME280;57052;55.602;38.096;2023-02-05T11:06:52;101339.41;;;4.26;56.23
69780;BME280;57052;55.602;38.096;2023-02-05T11:11:55;101328.25;;;4.22;57.39
69780;BME280;57052;55.602;38.096;2023-02-05T11:14:44;101330.06;;;4.09;56.43
69780;BME280;57052;55.602;38.096;2023-02-05T11:19:52;101322.41;;;3.99;57.63
69780;BME280;57052;55.602;38.096;2023-02-05T11:22:34;101332.50;;;4.04;57.03
69780;BME280;57052;55.602;38.096;2023-02-05T11:25:29;101337.69;;;4.12;56.42
69780;BME280;57052;55.602;38.096;2023-02-05T11:27:57;101313.59;;;4.12;57.72
69780;BME280;57052;55.602;38.096;2023-02-05T11:30:36;101338.97;;;4.22;57.28
69780;BME280;57052;55.602;38.096;2023-02-05T11:33:27;101338.59;;;4.25;56.05
69780;BME280;57052;55.602;38.096;2023-02-05T11:38:43;101346.91;;;3.96;54.24
69780;BME280;57052;55.602;38.096;2023-02-05T11:41:12;101339.31;;;4.00;57.03
69780;BME280;57052;55.602;38.096;2023-02-05T11:43:51;101356.44;;;4.05;56.41
69780;BME280;57052;55.602;38.096;2023-02-05T11:46:19;101355.38;;;4.06;57.38
69780;BME280;57052;55.602;38.096;2023-02-05T11:48:58;101338.84;;;3.89;55.48
69780;BME280;57052;55.602;38.096;2023-02-05T11:51:40;101354.28;;;3.87;55.60
69780;BME280;57052;55.602;38.096;2023-02-05T11:56:41;101355.19;;;3.67;58.10
69780;BME280;57052;55.602;38.096;2023-02-05T11:59:21;101360.94;;;3.64;56.21
69780;BME280;57052;55.602;38.096;2023-02-05T12:01:47;101354.38;;;3.66;57.83
69780;BME280;57052;55.602;38.096;2023-02-05T12:04:16;101356.41;;;3.64;57.31
69780;BME280;57052;55.602;38.096;2023-02-05T12:09:16;101351.41;;;3.55;56.70
69780;BME280;57052;55.602;38.096;2023-02-05T12:20:18;101361.88;;;3.50;56.43
69780;BME280;57052;55.602;38.096;2023-02-05T12:31:17;101346.66;;;3.50;56.37
69780;BME280;57052;55.602;38.096;2023-02-05T12:39:51;101353.50;;;3.59;56.91
69780;BME280;57052;55.602;38.096;2023-02-05T12:42:25;101358.66;;;3.61;56.11
69780;BME280;57052;55.602;38.096;2023-02-05T12:48:05;101358.09;;;3.38;55.56
69780;BME280;57052;55.602;38.096;2023-02-05T12:50:47;101350.91;;;3.38;56.35
69780;BME280;57052;55.602;38.096;2023-02-05T12:56:26;101365.28;;;3.37;55.68
69780;BME280;57052;55.602;38.096;2023-02-05T12:59:01;101352.94;;;3.36;56.48
69780;BME280;57052;55.602;38.096;2023-02-05T13:01:38;101357.22;;;3.31;55.55
69780;BME280;57052;55.602;38.096;2023-02-05T13:04:05;101353.72;;;3.30;57.09
69780;BME280;57052;55.602;38.096;2023-02-05T13:06:36;101352.59;;;3.18;56.52
69780;BME280;57052;55.602;38.096;2023-02-05T13:09:12;101359.06;;;3.02;55.52
69780;BME280;57052;55.602;38.096;2023-02-05T13:11:46;101362.50;;;2.96;56.66
69780;BME280;57052;55.602;38.096;2023-02-05T13:14:21;101367.47;;;2.99;57.72
69780;BME280;57052;55.602;38.096;2023-02-05T13:16:58;101365.38;;;2.95;57.55
69780;BME280;57052;55.602;38.096;2023-02-05T13:19:36;101376.69;;;2.97;57.06
69780;BME280;57052;55.602;38.096;2023-02-05T13:22:21;101278.75;;;2.26;56.02
69780;BME280;57052;55.602;38.096;2023-02-05T13:25:41;101366.13;;;2.89;57.10
69780;BME280;57052;55.602;38.096;2023-02-05T13:28:36;101369.63;;;2.89;57.64
69780;BME280;57052;55.602;38.096;2023-02-05T13:31:20;101367.78;;;2.90;57.04
69780;BME280;57052;55.602;38.096;2023-02-05T13:33:47;101371.72;;;2.94;58.18
69780;BME280;57052;55.602;38.096;2023-02-05T13:41:49;101379.56;;;2.95;58.32
69780;BME280;57052;55.602;38.096;2023-02-05T13:44:44;101379.22;;;2.84;56.98
69780;BME280;57052;55.602;38.096;2023-02-05T13:58:30;101376.25;;;2.36;57.13
69780;BME280;57052;55.602;38.096;2023-02-05T14:01:04;101351.91;;;2.25;58.00
69780;BME280;57052;55.602;38.096;2023-02-05T14:03:39;101362.66;;;2.31;57.77
69780;BME280;57052;55.602;38.096;2023-02-05T14:08:37;101379.19;;;2.41;58.53
69780;BME280;57052;55.602;38.096;2023-02-05T14:11:04;101381.25;;;2.39;58.80
69780;BME280;57052;55.602;38.096;2023-02-05T14:13:32;101391.41;;;2.29;59.11
69780;BME280;57052;55.602;38.096;2023-02-05T14:19:03;101376.34;;;2.07;58.35
69780;BME280;57052;55.602;38.096;2023-02-05T14:23:59;101405.97;;;2.12;59.37
69780;BME280;57052;55.602;38.096;2023-02-05T14:26:47;101400.53;;;2.06;58.33
69780;BME280;57052;55.602;38.096;2023-02-05T14:29:44;101396.84;;;2.07;58.08
69780;BME280;57052;55.602;38.096;2023-02-05T14:34:57;101401.28;;;2.14;58.71
69780;BME280;57052;55.602;38.096;2023-02-05T14:39:51;101390.78;;;1.98;59.87
69780;BME280;57052;55.602;38.096;2023-02-05T14:42:19;101404.97;;;1.99;59.43
69780;BME280;57052;55.602;38.096;2023-02-05T14:44:52;101406.91;;;2.05;58.87
69780;BME280;57052;55.602;38.096;2023-02-05T14:47:26;101410.78;;;2.02;59.41
69780;BME280;57052;55.602;38.096;2023-02-05T14:50:06;101399.53;;;1.92;59.62
69780;BME280;57052;55.602;38.096;2023-02-05T14:52:38;101401.00;;;1.94;59.71
69780;BME280;57052;55.602;38.096;2023-02-05T14:57:39;101424.75;;;2.04;59.89
69780;BME280;57052;55.602;38.096;2023-02-05T15:08:21;101428.53;;;2.10;60.49
69780;BME280;57052;55.602;38.096;2023-02-05T15:13:32;101425.22;;;2.08;60.66
69780;BME280;57052;55.602;38.096;2023-02-05T15:21:22;101426.03;;;2.08;60.52
69780;BME280;57052;55.602;38.096;2023-02-05T15:23:59;101431.56;;;2.07;60.84
69780;BME280;57052;55.602;38.096;2023-02-05T15:26:34;101427.22;;;2.06;61.00
69780;BME280;57052;55.602;38.096;2023-02-05T15:29:21;101433.78;;;2.03;60.76